sensor_id;sensor_type;location;lat;lon;timestamp;pressure;altitude;pressure_sealevel;temperature;humidity
42001;BME280;27689;48.390;10.856;2022-10-31T00:02:36;96598.97;;;10.31;100.00
42001;BME280;27689;48.390;10.856;2022-10-31T00:05:20;96602.13;;;10.24;100.00
42001;BME280;27689;48.390;10.856;2022-10-31T00:08:04;96603.91;;;10.24;100.00
42001;BME280;27689;48.390;10.856;2022-10-31T00:10:48;96599.50;;;10.24;100.00
42001;BME280;27689;48.390;10.856;2022-10-31T00:13:32;96601.94;;;10.16;100.00
42001;BME280;27689;48.390;10.856;2022-10-31T00:16:17;96602.44;;;10.10;100.00
42001;BME280;27689;48.390;10.856;2022-10-31T00:19:02;96600.66;;;10.11;100.00
42001;BME280;27689;48.390;10.856;2022-10-31T00:21:46;96592.66;;;10.12;100.00
42001;BME280;27689;48.390;10.856;2022-10-31T00:24:30;96605.22;;;10.09;100.00
42001;BME280;27689;48.390;10.856;2022-10-31T00:27:14;96600.78;;;10.09;100.00
42001;BME280;27689;48.390;10.856;2022-10-31T00:29:58;96598.44;;;10.06;100.00
42001;BME280;27689;48.390;10.856;2022-10-31T00:32:42;96593.59;;;10.02;100.00
42001;BME280;27689;48.390;10.856;2022-10-31T00:35:26;96599.78;;;10.01;100.00
42001;BME280;27689;48.390;10.856;2022-10-31T00:38:10;96598.69;;;9.94;100.00
42001;BME280;27689;48.390;10.856;2022-10-31T00:40:54;96598.81;;;9.92;100.00
42001;BME280;27689;48.390;10.856;2022-10-31T00:43:38;96602.38;;;9.91;100.00
42001;BME280;27689;48.390;10.856;2022-10-31T00:46:22;96598.22;;;9.88;100.00
42001;BME280;27689;48.390;10.856;2022-10-31T00:49:06;96600.03;;;9.88;100.00
42001;BME280;27689;48.390;10.856;2022-10-31T00:51:50;96602.63;;;9.88;100.00
42001;BME280;27689;48.390;10.856;2022-10-31T00:54:34;96604.41;;;9.87;100.00
42001;BME280;27689;48.390;10.856;2022-10-31T00:57:18;96606.22;;;9.87;100.00
42001;BME280;27689;48.390;10.856;2022-10-31T01:00:02;96611.31;;;9.88;100.00
42001;BME280;27689;48.390;10.856;2022-10-31T01:02:46;96618.34;;;9.88;100.00
42001;BME280;27689;48.390;10.856;2022-10-31T01:05:30;96618.34;;;9.88;100.00
42001;BME280;27689;48.390;10.856;2022-10-31T01:08:14;96619.88;;;9.90;100.00
42001;BME280;27689;48.390;10.856;2022-10-31T01:11:05;96619.03;;;9.90;100.00
42001;BME280;27689;48.390;10.856;2022-10-31T01:13:50;96616.41;;;9.90;100.00
42001;BME280;27689;48.390;10.856;2022-10-31T01:16:35;96620.69;;;9.91;100.00
42001;BME280;27689;48.390;10.856;2022-10-31T01:19:18;96621.91;;;9.87;100.00
42001;BME280;27689;48.390;10.856;2022-10-31T01:22:03;96629.88;;;9.85;100.00
42001;BME280;27689;48.390;10.856;2022-10-31T01:24:47;96619.28;;;9.87;100.00
42001;BME280;27689;48.390;10.856;2022-10-31T01:27:31;96617.50;;;9.87;100.00
42001;BME280;27689;48.390;10.856;2022-10-31T01:30:15;96617.38;;;9.89;100.00
42001;BME280;27689;48.390;10.856;2022-10-31T01:32:59;96612.41;;;9.86;100.00
42001;BME280;27689;48.390;10.856;2022-10-31T01:35:43;96621.34;;;9.83;100.00
42001;BME280;27689;48.390;10.856;2022-10-31T01:38:27;96622.16;;;9.84;100.00
42001;BME280;27689;48.390;10.856;2022-10-31T01:41:11;96615.16;;;9.84;100.00
42001;BME280;27689;48.390;10.856;2022-10-31T01:43:57;96620.25;;;9.86;100.00
42001;BME280;27689;48.390;10.856;2022-10-31T01:49:31;96625.22;;;9.89;100.00
42001;BME280;27689;48.390;10.856;2022-10-31T01:55:05;96626.31;;;9.86;100.00
42001;BME280;27689;48.390;10.856;2022-10-31T01:57:51;96629.50;;;9.90;100.00
42001;BME280;27689;48.390;10.856;2022-10-31T02:00:37;96621.22;;;9.85;100.00
42001;BME280;27689;48.390;10.856;2022-10-31T02:03:22;96617.59;;;9.76;100.00
42001;BME280;27689;48.390;10.856;2022-10-31T02:06:09;96616.63;;;9.77;100.00
42001;BME280;27689;48.390;10.856;2022-10-31T02:08:55;96614.03;;;9.77;100.00
42001;BME280;27689;48.390;10.856;2022-10-31T02:11:40;96619.84;;;9.60;100.00
42001;BME280;27689;48.390;10.856;2022-10-31T02:14:26;96616.38;;;9.60;100.00
42001;BME280;27689;48.390;10.856;2022-10-31T02:17:11;96612.81;;;9.61;100.00
42001;BME280;27689;48.390;10.856;2022-10-31T02:20:13;96611.16;;;9.60;100.00
42001;BME280;27689;48.390;10.856;2022-10-31T02:31:54;96602.09;;;9.43;100.00
42001;BME280;27689;48.390;10.856;2022-10-31T02:43:42;96595.41;;;9.29;100.00
42001;BME280;27689;48.390;10.856;2022-10-31T02:46:34;96605.28;;;9.26;100.00
42001;BME280;27689;48.390;10.856;2022-10-31T02:52:18;96604.97;;;9.19;100.00
42001;BME280;27689;48.390;10.856;2022-10-31T02:55:09;96608.53;;;9.18;100.00
42001;BME280;27689;48.390;10.856;2022-10-31T02:57:56;96607.13;;;9.14;100.00
42001;BME280;27689;48.390;10.856;2022-10-31T03:06:49;96610.75;;;9.02;100.00
42001;BME280;27689;48.390;10.856;2022-10-31T03:09:41;96606.38;;;8.91;100.00
42001;BME280;27689;48.390;10.856;2022-10-31T03:12:40;96615.63;;;8.95;100.00
42001;BME280;27689;48.390;10.856;2022-10-31T03:15:30;96612.19;;;8.95;100.00
42001;BME280;27689;48.390;10.856;2022-10-31T03:18:17;96620.72;;;8.97;100.00
42001;BME280;27689;48.390;10.856;2022-10-31T03:21:12;96606.00;;;8.96;100.00
42001;BME280;27689;48.390;10.856;2022-10-31T03:23:57;96602.69;;;8.94;100.00
42001;BME280;27689;48.390;10.856;2022-10-31T03:26:44;96605.81;;;8.88;100.00
42001;BME280;27689;48.390;10.856;2022-10-31T03:29:32;96611.28;;;8.84;100.00
42001;BME280;27689;48.390;10.856;2022-10-31T03:32:18;96603.69;;;8.81;100.00
42001;BME280;27689;48.390;10.856;2022-10-31T03:35:04;96609.84;;;8.80;100.00
42001;BME280;27689;48.390;10.856;2022-10-31T03:37:49;96613.81;;;8.75;100.00
42001;BME280;27689;48.390;10.856;2022-10-31T03:40:36;96611.09;;;8.65;100.00
42001;BME280;27689;48.390;10.856;2022-10-31T03:43:24;96613.69;;;8.65;100.00
42001;BME280;27689;48.390;10.856;2022-10-31T03:46:10;96617.25;;;8.64;100.00
42001;BME280;27689;48.390;10.856;2022-10-31T03:48:54;96614.53;;;8.66;100.00
42001;BME280;27689;48.390;10.856;2022-10-31T03:57:24;96606.09;;;8.62;100.00
42001;BME280;27689;48.390;10.856;2022-10-31T04:00:12;96601.81;;;8.61;100.00
42001;BME280;27689;48.390;10.856;2022-10-31T04:02:58;96604.44;;;8.61;100.00
42001;BME280;27689;48.390;10.856;2022-10-31T04:05:44;96600.31;;;8.59;100.00
42001;BME280;27689;48.390;10.856;2022-10-31T04:08:30;96599.72;;;8.55;100.00
42001;BME280;27689;48.390;10.856;2022-10-31T04:11:15;96597.59;;;8.49;100.00
42001;BME280;27689;48.390;10.856;2022-10-31T04:14:02;96602.09;;;8.47;100.00
42001;BME280;27689;48.390;10.856;2022-10-31T04:16:47;96601.97;;;8.48;100.00
42001;BME280;27689;48.390;10.856;2022-10-31T04:19:32;96605.31;;;8.51;100.00
42001;BME280;27689;48.390;10.856;2022-10-31T04:22:16;96604.34;;;8.52;100.00
42001;BME280;27689;48.390;10.856;2022-10-31T04:25:00;96590.72;;;8.48;100.00
42001;BME280;27689;48.390;10.856;2022-10-31T04:27:43;96595.69;;;8.51;100.00
42001;BME280;27689;48.390;10.856;2022-10-31T04:30:27;96592.84;;;8.54;100.00
42001;BME280;27689;48.390;10.856;2022-10-31T04:33:11;96590.94;;;8.56;100.00
42001;BME280;27689;48.390;10.856;2022-10-31T04:35:55;96604.72;;;8.58;100.00
42001;BME280;27689;48.390;10.856;2022-10-31T04:38:39;96607.19;;;8.60;100.00
42001;BME280;27689;48.390;10.856;2022-10-31T04:41:23;96606.09;;;8.62;100.00
42001;BME280;27689;48.390;10.856;2022-10-31T04:44:07;96596.50;;;8.63;100.00
42001;BME280;27689;48.390;10.856;2022-10-31T04:46:51;96594.47;;;8.66;100.00
42001;BME280;27689;48.390;10.856;2022-10-31T04:49:35;96591.72;;;8.68;100.00
42001;BME280;27689;48.390;10.856;2022-10-31T04:52:18;96584.72;;;8.68;100.00
42001;BME280;27689;48.390;10.856;2022-10-31T04:55:02;96581.28;;;8.68;100.00
42001;BME280;27689;48.390;10.856;2022-10-31T04:57:48;96584.13;;;8.65;100.00
42001;BME280;27689;48.390;10.856;2022-10-31T05:00:32;96584.84;;;8.67;100.00
42001;BME280;27689;48.390;10.856;2022-10-31T05:03:15;96587.59;;;8.65;100.00
42001;BME280;27689;48.390;10.856;2022-10-31T05:05:59;96592.91;;;8.64;100.00
42001;BME280;27689;48.390;10.856;2022-10-31T05:08:43;96596.50;;;8.63;100.00
42001;BME280;27689;48.390;10.856;2022-10-31T05:11:27;96590.44;;;8.62;100.00
42001;BME280;27689;48.390;10.856;2022-10-31T05:14:11;96595.94;;;8.59;100.00
42001;BME280;27689;48.390;10.856;2022-10-31T05:16:55;96593.31;;;8.59;100.00
42001;BME280;27689;48.390;10.856;2022-10-31T05:19:38;96592.59;;;8.57;100.00
42001;BME280;27689;48.390;10.856;2022-10-31T05:22:22;96597.34;;;8.52;100.00
42001;BME280;27689;48.390;10.856;2022-10-31T05:25:06;96597.47;;;8.51;100.00
42001;BME280;27689;48.390;10.856;2022-10-31T05:27:51;96584.53;;;8.49;100.00
42001;BME280;27689;48.390;10.856;2022-10-31T05:30:35;96578.38;;;8.50;100.00
42001;BME280;27689;48.390;10.856;2022-10-31T05:33:19;96584.28;;;8.52;100.00
42001;BME280;27689;48.390;10.856;2022-10-31T05:36:03;96572.91;;;8.53;100.00
42001;BME280;27689;48.390;10.856;2022-10-31T05:38:47;96572.69;;;8.45;100.00
42001;BME280;27689;48.390;10.856;2022-10-31T05:41:30;96575.31;;;8.45;100.00
42001;BME280;27689;48.390;10.856;2022-10-31T05:44:14;96569.63;;;8.40;100.00
42001;BME280;27689;48.390;10.856;2022-10-31T05:46:58;96574.00;;;8.39;100.00
42001;BME280;27689;48.390;10.856;2022-10-31T05:49:42;96568.91;;;8.38;100.00
42001;BME280;27689;48.390;10.856;2022-10-31T05:52:26;96569.63;;;8.29;100.00
42001;BME280;27689;48.390;10.856;2022-10-31T05:55:10;96574.34;;;8.24;100.00
42001;BME280;27689;48.390;10.856;2022-10-31T05:57:54;96571.88;;;8.22;100.00
42001;BME280;27689;48.390;10.856;2022-10-31T06:00:38;96572.94;;;8.20;100.00
42001;BME280;27689;48.390;10.856;2022-10-31T06:03:22;96571.88;;;8.22;100.00
42001;BME280;27689;48.390;10.856;2022-10-31T06:06:06;96577.19;;;8.21;100.00
42001;BME280;27689;48.390;10.856;2022-10-31T06:08:50;96576.25;;;8.22;100.00
42001;BME280;27689;48.390;10.856;2022-10-31T06:11:34;96575.66;;;8.18;100.00
42001;BME280;27689;48.390;10.856;2022-10-31T06:14:18;96578.38;;;8.17;100.00
42001;BME280;27689;48.390;10.856;2022-10-31T06:17:02;96577.59;;;8.16;100.00
42001;BME280;27689;48.390;10.856;2022-10-31T06:19:46;96578.53;;;8.15;100.00
42001;BME280;27689;48.390;10.856;2022-10-31T06:22:30;96582.91;;;8.14;100.00
42001;BME280;27689;48.390;10.856;2022-10-31T06:25:14;96579.72;;;8.11;100.00
42001;BME280;27689;48.390;10.856;2022-10-31T06:27:58;96576.03;;;8.13;100.00
42001;BME280;27689;48.390;10.856;2022-10-31T06:30:42;96568.22;;;8.13;100.00
42001;BME280;27689;48.390;10.856;2022-10-31T06:33:26;96568.78;;;8.17;100.00
42001;BME280;27689;48.390;10.856;2022-10-31T06:36:10;96573.16;;;8.17;100.00
42001;BME280;27689;48.390;10.856;2022-10-31T06:38:54;96574.81;;;8.18;100.00
42001;BME280;27689;48.390;10.856;2022-10-31T06:41:38;96579.09;;;8.19;100.00
42001;BME280;27689;48.390;10.856;2022-10-31T06:44:23;96575.41;;;8.21;100.00
42001;BME280;27689;48.390;10.856;2022-10-31T06:47:07;96581.47;;;8.22;100.00
42001;BME280;27689;48.390;10.856;2022-10-31T06:49:51;96576.97;;;8.24;100.00
42001;BME280;27689;48.390;10.856;2022-10-31T06:52:35;96573.16;;;8.28;100.00
42001;BME280;27689;48.390;10.856;2022-10-31T06:55:19;96572.81;;;8.32;100.00
42001;BME280;27689;48.390;10.856;2022-10-31T06:58:06;96570.56;;;8.39;100.00
42001;BME280;27689;48.390;10.856;2022-10-31T07:00:50;96576.25;;;8.44;100.00
42001;BME280;27689;48.390;10.856;2022-10-31T07:03:33;96579.78;;;8.54;100.00
42001;BME280;27689;48.390;10.856;2022-10-31T07:06:17;96574.75;;;8.62;100.00
42001;BME280;27689;48.390;10.856;2022-10-31T07:09:01;96579.03;;;8.74;100.00
42001;BME280;27689;48.390;10.856;2022-10-31T07:11:45;96582.19;;;8.89;100.00
42001;BME280;27689;48.390;10.856;2022-10-31T07:14:29;96594.22;;;9.01;100.00
42001;BME280;27689;48.390;10.856;2022-10-31T07:17:13;96591.56;;;9.12;100.00
42001;BME280;27689;48.390;10.856;2022-10-31T07:19:57;96583.78;;;9.22;100.00
42001;BME280;27689;48.390;10.856;2022-10-31T07:22:41;96588.97;;;9.33;100.00
42001;BME280;27689;48.390;10.856;2022-10-31T07:25:25;96579.16;;;9.46;100.00
42001;BME280;27689;48.390;10.856;2022-10-31T07:28:09;96593.69;;;9.60;100.00
42001;BME280;27689;48.390;10.856;2022-10-31T07:30:54;96594.41;;;9.72;100.00
42001;BME280;27689;48.390;10.856;2022-10-31T07:33:38;96591.22;;;9.89;100.00
42001;BME280;27689;48.390;10.856;2022-10-31T07:36:22;96588.13;;;10.05;100.00
42001;BME280;27689;48.390;10.856;2022-10-31T07:39:06;96585.25;;;10.17;100.00
42001;BME280;27689;48.390;10.856;2022-10-31T07:41:50;96583.53;;;10.28;100.00
42001;BME280;27689;48.390;10.856;2022-10-31T07:44:34;96585.50;;;10.45;100.00
42001;BME280;27689;48.390;10.856;2022-10-31T07:47:18;96581.81;;;10.57;100.00
42001;BME280;27689;48.390;10.856;2022-10-31T07:50:02;96581.00;;;10.76;100.00
42001;BME280;27689;48.390;10.856;2022-10-31T07:52:46;96576.75;;;10.94;100.00
42001;BME280;27689;48.390;10.856;2022-10-31T07:55:29;96583.81;;;11.13;100.00
42001;BME280;27689;48.390;10.856;2022-10-31T07:58:14;96578.53;;;11.32;100.00
42001;BME280;27689;48.390;10.856;2022-10-31T08:00:58;96567.03;;;11.43;100.00
42001;BME280;27689;48.390;10.856;2022-10-31T08:03:42;96574.91;;;11.52;100.00
42001;BME280;27689;48.390;10.856;2022-10-31T08:06:26;96568.09;;;11.69;100.00
42001;BME280;27689;48.390;10.856;2022-10-31T08:09:10;96572.19;;;11.91;100.00
42001;BME280;27689;48.390;10.856;2022-10-31T08:11:54;96563.97;;;12.13;100.00
42001;BME280;27689;48.390;10.856;2022-10-31T08:14:38;96566.41;;;12.24;100.00
42001;BME280;27689;48.390;10.856;2022-10-31T08:17:22;96566.66;;;12.49;100.00
42001;BME280;27689;48.390;10.856;2022-10-31T08:20:06;96562.13;;;12.68;100.00
42001;BME280;27689;48.390;10.856;2022-10-31T08:22:54;96563.41;;;12.82;100.00
42001;BME280;27689;48.390;10.856;2022-10-31T08:25:38;96559.66;;;13.02;100.00
42001;BME280;27689;48.390;10.856;2022-10-31T08:28:22;96561.22;;;13.13;95.06
42001;BME280;27689;48.390;10.856;2022-10-31T08:31:05;96559.38;;;13.23;94.98
42001;BME280;27689;48.390;10.856;2022-10-31T08:33:49;96552.44;;;13.40;96.89
42001;BME280;27689;48.390;10.856;2022-10-31T08:36:35;96554.16;;;13.49;96.52
42001;BME280;27689;48.390;10.856;2022-10-31T08:39:19;96555.25;;;13.64;97.16
42001;BME280;27689;48.390;10.856;2022-10-31T08:42:03;96544.47;;;13.84;96.21
42001;BME280;27689;48.390;10.856;2022-10-31T08:44:47;96529.91;;;13.97;93.46
42001;BME280;27689;48.390;10.856;2022-10-31T08:47:31;96536.88;;;14.06;93.25
42001;BME280;27689;48.390;10.856;2022-10-31T08:50:15;96534.94;;;14.17;92.99
42001;BME280;27689;48.390;10.856;2022-10-31T08:53:00;96533.66;;;14.29;93.74
42001;BME280;27689;48.390;10.856;2022-10-31T08:55:45;96536.34;;;14.37;89.27
42001;BME280;27689;48.390;10.856;2022-10-31T08:58:29;96537.50;;;14.42;88.85
42001;BME280;27689;48.390;10.856;2022-10-31T09:01:13;96532.13;;;14.60;89.25
42001;BME280;27689;48.390;10.856;2022-10-31T09:03:56;96530.84;;;14.72;90.07
42001;BME280;27689;48.390;10.856;2022-10-31T09:06:40;96532.16;;;14.76;87.37
42001;BME280;27689;48.390;10.856;2022-10-31T09:09:24;96526.44;;;14.97;89.66
42001;BME280;27689;48.390;10.856;2022-10-31T09:12:08;96524.13;;;15.10;89.40
42001;BME280;27689;48.390;10.856;2022-10-31T09:14:52;96525.09;;;15.17;89.29
42001;BME280;27689;48.390;10.856;2022-10-31T09:17:36;96520.81;;;15.33;88.72
42001;BME280;27689;48.390;10.856;2022-10-31T09:20:20;96510.41;;;15.47;87.96
42001;BME280;27689;48.390;10.856;2022-10-31T09:23:05;96505.78;;;15.66;85.58
42001;BME280;27689;48.390;10.856;2022-10-31T09:25:50;96501.94;;;15.84;85.21
42001;BME280;27689;48.390;10.856;2022-10-31T09:28:34;96505.22;;;15.95;85.37
42001;BME280;27689;48.390;10.856;2022-10-31T09:31:19;96490.97;;;16.04;86.29
42001;BME280;27689;48.390;10.856;2022-10-31T09:34:03;96498.66;;;16.21;85.23
42001;BME280;27689;48.390;10.856;2022-10-31T09:36:46;96487.13;;;16.14;81.19
42001;BME280;27689;48.390;10.856;2022-10-31T09:39:30;96495.50;;;16.26;83.84
42001;BME280;27689;48.390;10.856;2022-10-31T09:47:56;96488.72;;;16.54;85.01
42001;BME280;27689;48.390;10.856;2022-10-31T09:50:46;96495.13;;;16.68;85.06
42001;BME280;27689;48.390;10.856;2022-10-31T09:53:34;96490.50;;;16.70;83.25
42001;BME280;27689;48.390;10.856;2022-10-31T09:56:20;96487.16;;;16.76;84.33
42001;BME280;27689;48.390;10.856;2022-10-31T09:59:05;96486.91;;;16.86;83.54
42001;BME280;27689;48.390;10.856;2022-10-31T10:01:59;96485.66;;;16.97;83.88
42001;BME280;27689;48.390;10.856;2022-10-31T10:04:47;96483.16;;;17.03;83.61
42001;BME280;27689;48.390;10.856;2022-10-31T10:10:44;96476.44;;;17.30;83.32
42001;BME280;27689;48.390;10.856;2022-10-31T10:16:28;96472.19;;;17.44;84.05
42001;BME280;27689;48.390;10.856;2022-10-31T10:25:32;96469.66;;;17.50;84.50
42001;BME280;27689;48.390;10.856;2022-10-31T10:28:20;96471.91;;;17.53;84.62
42001;BME280;27689;48.390;10.856;2022-10-31T10:31:14;96467.16;;;17.34;84.54
42001;BME280;27689;48.390;10.856;2022-10-31T10:37:01;96451.69;;;17.38;86.22
42001;BME280;27689;48.390;10.856;2022-10-31T10:39:48;96464.34;;;17.50;87.23
42001;BME280;27689;48.390;10.856;2022-10-31T10:42:33;96465.06;;;17.59;87.02
42001;BME280;27689;48.390;10.856;2022-10-31T10:45:36;96457.69;;;17.69;86.78
42001;BME280;27689;48.390;10.856;2022-10-31T10:48:54;96457.69;;;17.69;85.06
42001;BME280;27689;48.390;10.856;2022-10-31T11:00:29;96440.53;;;17.94;84.78
42001;BME280;27689;48.390;10.856;2022-10-31T11:03:13;96433.19;;;17.96;85.31
42001;BME280;27689;48.390;10.856;2022-10-31T11:05:58;96435.47;;;18.00;85.05
42001;BME280;27689;48.390;10.856;2022-10-31T11:08:43;96428.28;;;17.93;86.05
42001;BME280;27689;48.390;10.856;2022-10-31T11:11:28;96430.81;;;17.87;86.90
42001;BME280;27689;48.390;10.856;2022-10-31T11:14:14;96424.34;;;17.89;87.06
42001;BME280;27689;48.390;10.856;2022-10-31T11:17:10;96415.94;;;17.86;86.19
42001;BME280;27689;48.390;10.856;2022-10-31T11:20:03;96419.03;;;17.89;86.84
42001;BME280;27689;48.390;10.856;2022-10-31T11:22:48;96425.53;;;17.87;86.45
42001;BME280;27689;48.390;10.856;2022-10-31T11:25:32;96425.63;;;17.79;86.81
42001;BME280;27689;48.390;10.856;2022-10-31T11:28:16;96419.88;;;17.75;86.57
42001;BME280;27689;48.390;10.856;2022-10-31T11:31:01;96418.66;;;17.63;86.98
42001;BME280;27689;48.390;10.856;2022-10-31T11:33:49;96418.53;;;17.65;88.08
42001;BME280;27689;48.390;10.856;2022-10-31T11:36:35;96413.22;;;17.65;88.07
42001;BME280;27689;48.390;10.856;2022-10-31T11:39:20;96417.84;;;17.62;88.74
42001;BME280;27689;48.390;10.856;2022-10-31T11:42:05;96412.41;;;17.64;88.19
42001;BME280;27689;48.390;10.856;2022-10-31T11:44:49;96412.28;;;17.72;88.74
42001;BME280;27689;48.390;10.856;2022-10-31T11:47:33;96413.94;;;17.73;89.13
42001;BME280;27689;48.390;10.856;2022-10-31T11:50:21;96408.09;;;17.78;87.42
42001;BME280;27689;48.390;10.856;2022-10-31T11:56:20;96400.53;;;18.11;86.98
42001;BME280;27689;48.390;10.856;2022-10-31T11:59:05;96390.91;;;18.24;86.07
42001;BME280;27689;48.390;10.856;2022-10-31T12:01:58;96383.28;;;18.36;85.82
42001;BME280;27689;48.390;10.856;2022-10-31T12:04:44;96389.06;;;18.46;84.79
42001;BME280;27689;48.390;10.856;2022-10-31T12:07:28;96386.06;;;18.49;83.66
42001;BME280;27689;48.390;10.856;2022-10-31T12:10:12;96378.97;;;18.56;84.80
42001;BME280;27689;48.390;10.856;2022-10-31T12:13:01;96385.91;;;18.57;84.63
42001;BME280;27689;48.390;10.856;2022-10-31T12:15:50;96371.56;;;18.66;85.94
42001;BME280;27689;48.390;10.856;2022-10-31T12:27:29;96361.50;;;18.62;85.18
42001;BME280;27689;48.390;10.856;2022-10-31T12:30:19;96353.63;;;18.69;84.54
42001;BME280;27689;48.390;10.856;2022-10-31T12:42:07;96339.94;;;18.50;85.33
42001;BME280;27689;48.390;10.856;2022-10-31T12:45:00;96335.63;;;18.49;86.49
42001;BME280;27689;48.390;10.856;2022-10-31T12:59:20;96316.56;;;18.60;84.53
42001;BME280;27689;48.390;10.856;2022-10-31T13:02:20;96307.53;;;18.33;84.44
42001;BME280;27689;48.390;10.856;2022-10-31T13:08:03;96311.13;;;18.26;85.87
42001;BME280;27689;48.390;10.856;2022-10-31T13:10:50;96307.41;;;18.20;86.18
42001;BME280;27689;48.390;10.856;2022-10-31T13:16:28;96302.66;;;18.16;86.66
42001;BME280;27689;48.390;10.856;2022-10-31T13:19:18;96296.50;;;18.09;86.44
42001;BME280;27689;48.390;10.856;2022-10-31T13:22:20;96293.44;;;18.12;86.71
42001;BME280;27689;48.390;10.856;2022-10-31T13:25:13;96295.88;;;18.07;87.35
42001;BME280;27689;48.390;10.856;2022-10-31T13:28:12;96283.78;;;18.04;88.42
42001;BME280;27689;48.390;10.856;2022-10-31T13:30:59;96281.97;;;18.05;88.21
42001;BME280;27689;48.390;10.856;2022-10-31T13:33:49;96283.78;;;18.04;87.91
42001;BME280;27689;48.390;10.856;2022-10-31T13:36:37;96279.41;;;17.96;88.70
42001;BME280;27689;48.390;10.856;2022-10-31T13:42:53;96282.91;;;17.97;88.96
42001;BME280;27689;48.390;10.856;2022-10-31T13:45:17;96269.09;;;18.02;88.47
42001;BME280;27689;48.390;10.856;2022-10-31T13:50:59;96261.69;;;17.97;89.53
42001;BME280;27689;48.390;10.856;2022-10-31T13:53:56;96269.84;;;17.95;89.81
42001;BME280;27689;48.390;10.856;2022-10-31T13:56:41;96264.47;;;17.89;89.50
42001;BME280;27689;48.390;10.856;2022-10-31T13:59:28;96254.78;;;17.81;89.98
42001;BME280;27689;48.390;10.856;2022-10-31T14:02:16;96262.50;;;17.76;90.36
42001;BME280;27689;48.390;10.856;2022-10-31T14:05:06;96261.25;;;17.72;90.49
42001;BME280;27689;48.390;10.856;2022-10-31T14:08:02;96258.22;;;17.60;91.24
42001;BME280;27689;48.390;10.856;2022-10-31T14:10:48;96259.31;;;17.51;91.89
42001;BME280;27689;48.390;10.856;2022-10-31T14:13:37;96266.84;;;17.48;92.25
42001;BME280;27689;48.390;10.856;2022-10-31T14:16:25;96255.63;;;17.46;92.66
42001;BME280;27689;48.390;10.856;2022-10-31T14:19:14;96260.81;;;17.39;92.66
42001;BME280;27689;48.390;10.856;2022-10-31T14:21:59;96246.75;;;17.39;92.63
42001;BME280;27689;48.390;10.856;2022-10-31T14:24:43;96243.88;;;17.34;93.10
42001;BME280;27689;48.390;10.856;2022-10-31T14:30:15;96243.69;;;17.20;93.35
42001;BME280;27689;48.390;10.856;2022-10-31T14:33:04;96244.97;;;17.10;93.71
42001;BME280;27689;48.390;10.856;2022-10-31T14:35:59;96248.56;;;17.02;93.90
42001;BME280;27689;48.390;10.856;2022-10-31T14:44:38;96236.50;;;16.85;95.43
42001;BME280;27689;48.390;10.856;2022-10-31T14:56:09;96230.03;;;16.73;96.09
42001;BME280;27689;48.390;10.856;2022-10-31T14:58:54;96229.22;;;16.72;96.48
42001;BME280;27689;48.390;10.856;2022-10-31T15:01:39;96221.34;;;16.64;96.64
42001;BME280;27689;48.390;10.856;2022-10-31T15:04:31;96224.81;;;16.65;96.39
42001;BME280;27689;48.390;10.856;2022-10-31T15:07:19;96224.88;;;16.56;96.74
42001;BME280;27689;48.390;10.856;2022-10-31T15:10:19;96221.75;;;16.53;97.15
42001;BME280;27689;48.390;10.856;2022-10-31T15:13:10;96222.13;;;16.50;97.33
42001;BME280;27689;48.390;10.856;2022-10-31T15:15:55;96213.53;;;16.48;97.25
42001;BME280;27689;48.390;10.856;2022-10-31T15:18:53;96211.81;;;16.40;97.56
42001;BME280;27689;48.390;10.856;2022-10-31T15:21:40;96207.22;;;16.34;98.07
42001;BME280;27689;48.390;10.856;2022-10-31T15:24:36;96208.06;;;16.35;97.90
42001;BME280;27689;48.390;10.856;2022-10-31T15:27:20;96205.97;;;16.30;98.31
42001;BME280;27689;48.390;10.856;2022-10-31T15:30:15;96199.38;;;16.26;98.42
42001;BME280;27689;48.390;10.856;2022-10-31T15:32:59;96203.03;;;16.25;98.42
42001;BME280;27689;48.390;10.856;2022-10-31T15:35:53;96201.91;;;16.19;98.97
42001;BME280;27689;48.390;10.856;2022-10-31T15:38:37;96203.31;;;16.15;99.02
42001;BME280;27689;48.390;10.856;2022-10-31T15:41:23;96197.72;;;16.10;98.98
42001;BME280;27689;48.390;10.856;2022-10-31T15:44:12;96202.53;;;16.07;98.83
42001;BME280;27689;48.390;10.856;2022-10-31T15:46:59;96204.97;;;15.94;99.50
42001;BME280;27689;48.390;10.856;2022-10-31T15:49:54;96201.03;;;15.90;99.71
42001;BME280;27689;48.390;10.856;2022-10-31T15:52:40;96197.94;;;15.86;99.72
42001;BME280;27689;48.390;10.856;2022-10-31T15:55:25;96193.69;;;15.77;99.58
42001;BME280;27689;48.390;10.856;2022-10-31T15:58:14;96198.50;;;15.73;99.54
42001;BME280;27689;48.390;10.856;2022-10-31T16:01:03;96190.16;;;15.62;99.79
42001;BME280;27689;48.390;10.856;2022-10-31T16:06:44;96197.34;;;15.45;99.73
42001;BME280;27689;48.390;10.856;2022-10-31T16:09:28;96193.81;;;15.30;99.75
42001;BME280;27689;48.390;10.856;2022-10-31T16:12:13;96196.16;;;15.25;100.00
42001;BME280;27689;48.390;10.856;2022-10-31T16:14:57;96192.91;;;15.14;100.00
42001;BME280;27689;48.390;10.856;2022-10-31T16:17:42;96193.28;;;15.03;100.00
42001;BME280;27689;48.390;10.856;2022-10-31T16:20:27;96186.94;;;14.90;100.00
42001;BME280;27689;48.390;10.856;2022-10-31T16:23:13;96195.72;;;14.82;100.00
42001;BME280;27689;48.390;10.856;2022-10-31T16:25:59;96187.53;;;14.69;100.00
42001;BME280;27689;48.390;10.856;2022-10-31T16:28:53;96187.69;;;14.59;100.00
42001;BME280;27689;48.390;10.856;2022-10-31T16:31:39;96193.31;;;14.56;100.00
42001;BME280;27689;48.390;10.856;2022-10-31T16:34:23;96198.28;;;14.43;100.00
42001;BME280;27689;48.390;10.856;2022-10-31T16:37:07;96194.84;;;14.34;100.00
42001;BME280;27689;48.390;10.856;2022-10-31T16:39:51;96200.44;;;14.31;100.00